Time;durP1;ratioP1;P1;durP2;ratioP2;P2;SDS_P1;SDS_P2;PMS_P1;PMS_P2;Temp;Humidity;BMP_temperature;BMP_pressure;BME280_temperature;BME280_humidity;BME280_pressure;Samples;Min_cycle;Max_cycle;Signal;HPM_P1;HPM_P2
2023/04/05 00:02:05;;;;;;;15.23;7.77;;;;;;;3.50;100.00;99831.69;124883;1099;104031;-76
2023/04/05 00:04:41;;;;;;;13.17;6.33;;;;;;;3.49;100.00;99833.41;124363;1099;101755;-76
2023/04/05 00:07:13;;;;;;;14.37;7.17;;;;;;;3.47;100.00;99832.41;124816;1099;104015;-75
2023/04/05 00:09:46;;;;;;;13.80;6.87;;;;;;;3.46;100.00;99827.13;124834;1099;101609;-76
2023/04/05 00:12:18;;;;;;;12.87;6.37;;;;;;;3.46;100.00;99834.91;124949;1098;104031;-75
2023/04/05 00:14:50;;;;;;;10.13;5.63;;;;;;;3.41;100.00;99830.40;124934;1099;104069;-76
2023/04/05 00:17:23;;;;;;;11.30;5.77;;;;;;;3.39;100.00;99832.00;124884;1099;102123;-76
2023/04/05 00:19:56;;;;;;;8.17;5.30;;;;;;;3.36;100.00;99826.64;124874;1098;104016;-76
2023/04/05 00:22:30;;;;;;;8.00;4.03;;;;;;;3.30;100.00;99825.44;124646;1099;104105;-75
2023/04/05 00:25:02;;;;;;;7.60;4.35;;;;;;;3.25;100.00;99822.59;124593;1099;103935;-75
2023/04/05 00:27:35;;;;;;;6.60;4.27;;;;;;;3.21;100.00;99816.36;124937;1099;101936;-75
2023/04/05 00:30:09;;;;;;;6.13;4.03;;;;;;;3.14;100.00;99814.23;125030;1099;103961;-75
2023/04/05 00:32:41;;;;;;;5.03;3.67;;;;;;;3.12;100.00;99810.67;124953;1099;101789;-74
2023/04/05 00:35:13;;;;;;;5.77;3.97;;;;;;;3.07;100.00;99817.31;124798;1099;104089;-75
2023/04/05 00:37:46;;;;;;;6.67;4.40;;;;;;;3.06;100.00;99823.30;124817;1099;104120;-75
2023/04/05 00:40:18;;;;;;;5.50;3.80;;;;;;;3.04;100.00;99825.81;124917;1098;103948;-76
2023/04/05 00:42:50;;;;;;;4.97;3.73;;;;;;;3.05;100.00;99829.28;124998;1099;103985;-76
2023/04/05 00:45:22;;;;;;;4.97;3.60;;;;;;;3.06;100.00;99831.08;124816;1099;104121;-75
2023/04/05 00:47:55;;;;;;;4.27;3.27;;;;;;;3.05;100.00;99826.69;124908;1099;103934;-77
2023/04/05 00:50:29;;;;;;;5.60;3.30;;;;;;;3.02;100.00;99832.62;124870;1099;103996;-75
2023/04/05 00:53:02;;;;;;;6.65;4.58;;;;;;;3.01;100.00;99828.23;125034;1098;103948;-75
2023/04/05 00:55:36;;;;;;;6.23;4.60;;;;;;;3.02;100.00;99835.21;124912;1099;101846;-75
2023/04/05 00:58:09;;;;;;;6.95;4.17;;;;;;;3.03;100.00;99836.09;124874;1098;104043;-76
2023/04/05 01:00:42;;;;;;;7.85;4.50;;;;;;;3.01;100.00;99827.34;124831;1098;103996;-77
2023/04/05 01:03:15;;;;;;;7.20;4.33;;;;;;;2.98;100.00;99827.18;124703;1099;104081;-75
2023/04/05 01:05:53;;;;;;;4.22;3.50;;;;;;;2.96;100.00;99823.59;124922;1099;101647;-77
2023/04/05 01:08:35;;;;;;;5.63;4.00;;;;;;;2.95;100.00;99822.70;124804;1099;102989;-76
2023/04/05 01:11:08;;;;;;;8.90;5.30;;;;;;;2.95;100.00;99834.78;124868;1099;101733;-75
2023/04/05 01:13:40;;;;;;;6.62;4.60;;;;;;;2.94;100.00;99839.05;124849;1099;103983;-75
2023/04/05 01:16:13;;;;;;;6.87;4.47;;;;;;;2.94;100.00;99840.77;124874;1099;104006;-76
2023/04/05 01:18:46;;;;;;;5.33;3.30;;;;;;;2.92;100.00;99840.68;124929;1099;103948;-75
2023/04/05 01:21:42;;;;;;;6.13;4.20;;;;;;;2.91;100.00;99832.82;124941;1099;103952;-76
2023/04/05 01:24:27;;;;;;;5.90;3.63;;;;;;;2.86;100.00;99835.16;124835;1099;104415;-75
2023/04/05 01:27:09;;;;;;;3.27;2.67;;;;;;;2.86;100.00;99843.81;124459;1099;104027;-73
2023/04/05 01:29:50;;;;;;;4.47;3.40;;;;;;;2.81;100.00;99834.90;124394;1099;104064;-74
2023/04/05 01:32:37;;;;;;;3.90;2.87;;;;;;;2.81;100.00;99834.02;124396;1099;102012;-74
2023/04/05 01:35:17;;;;;;;3.73;2.90;;;;;;;2.77;100.00;99832.93;124773;1099;103983;-74
2023/04/05 01:37:57;;;;;;;5.63;3.70;;;;;;;2.75;100.00;99823.31;124748;1099;103951;-75
2023/04/05 01:40:30;;;;;;;3.93;2.67;;;;;;;2.73;100.00;99823.22;124808;1099;103942;-75
2023/04/05 01:43:12;;;;;;;5.87;3.60;;;;;;;2.72;100.00;99829.20;124790;1099;101602;-74
2023/04/05 01:45:45;;;;;;;4.20;2.90;;;;;;;2.70;100.00;99831.70;124828;1099;104044;-75
2023/04/05 01:48:18;;;;;;;3.83;2.60;;;;;;;2.72;100.00;99833.50;124814;1099;103993;-76
2023/04/05 01:50:50;;;;;;;3.03;2.37;;;;;;;2.69;100.00;99824.73;124463;1099;101625;-76
2023/04/05 01:53:22;;;;;;;3.40;2.70;;;;;;;2.69;100.00;99831.62;124377;1099;102908;-74
2023/04/05 01:55:54;;;;;;;3.00;2.30;;;;;;;2.68;100.00;99815.19;124760;1099;103942;-74
2023/04/05 01:58:26;;;;;;;5.43;3.40;;;;;;;2.66;100.00;99814.19;124867;1098;103965;-75
2023/04/05 02:00:59;;;;;;;3.50;2.20;;;;;;;2.63;100.00;99803.69;124835;1098;103945;-74
2023/04/05 02:03:31;;;;;;;4.97;3.43;;;;;;;2.62;100.00;99803.60;124735;1099;103880;-74
2023/04/05 02:06:04;;;;;;;4.73;2.93;;;;;;;2.61;100.00;99802.69;124389;1102;104455;-75
2023/04/05 02:08:37;;;;;;;5.07;3.67;;;;;;;2.57;100.00;99800.75;124713;1099;103945;-76
2023/04/05 02:11:09;;;;;;;6.27;3.80;;;;;;;2.57;100.00;99797.25;124421;1099;101712;-75
2023/04/05 02:13:42;;;;;;;2.97;2.37;;;;;;;2.56;100.00;99804.14;124846;1099;101742;-73
2023/04/05 02:16:16;;;;;;;4.13;3.00;;;;;;;2.55;100.00;99804.05;124818;1099;103970;-74
2023/04/05 02:18:49;;;;;;;5.17;3.27;;;;;;;2.50;100.00;99806.38;124810;1099;102538;-75
2023/04/05 02:21:21;;;;;;;6.03;3.42;;;;;;;2.50;100.00;99790.84;124852;1099;103942;-74
2023/04/05 02:23:54;;;;;;;3.03;2.60;;;;;;;2.45;100.00;99790.58;124774;1099;103974;-75
2023/04/05 02:26:26;;;;;;;3.30;2.60;;;;;;;2.42;100.00;99793.00;124843;1099;104143;-76
2023/04/05 02:28:58;;;;;;;4.50;2.57;;;;;;;2.37;100.00;99776.31;124761;1099;105302;-74
2023/04/05 02:31:31;;;;;;;3.90;2.80;;;;;;;2.34;100.00;99784.79;124811;1099;102070;-76
2023/04/05 02:34:04;;;;;;;4.67;3.13;;;;;;;2.34;100.00;99789.09;124738;1098;104037;-74
2023/04/05 02:36:37;;;;;;;3.52;2.52;;;;;;;2.31;100.00;99796.68;124803;1099;101594;-74
2023/04/05 02:39:09;;;;;;;3.87;2.77;;;;;;;2.28;100.00;99802.56;124697;1099;103971;-74
2023/04/05 02:41:42;;;;;;;4.67;2.70;;;;;;;2.25;100.00;99797.21;124710;1099;101778;-74
2023/04/05 02:44:15;;;;;;;5.10;2.90;;;;;;;2.25;100.00;99804.09;124825;1099;104066;-74
2023/04/05 02:46:47;;;;;;;3.47;2.50;;;;;;;2.26;100.00;99808.45;124769;1099;103983;-75
2023/04/05 02:49:20;;;;;;;4.03;2.70;;;;;;;2.24;100.00;99818.71;124716;1099;104016;-74
2023/04/05 02:51:54;;;;;;;7.10;3.27;;;;;;;2.22;100.00;99819.45;124810;1099;104003;-74
2023/04/05 02:54:27;;;;;;;3.80;2.53;;;;;;;2.22;100.00;99811.69;124326;1099;104009;-76
2023/04/05 02:57:03;;;;;;;3.60;2.83;;;;;;;2.24;100.00;99807.48;124798;1099;103958;-73
2023/04/05 02:59:43;;;;;;;5.03;2.50;;;;;;;2.24;100.00;99815.24;124452;1099;104072;-74
2023/04/05 03:02:16;;;;;;;5.50;3.37;;;;;;;2.23;100.00;99801.42;124396;1099;103951;-73
2023/04/05 03:04:48;;;;;;;4.60;2.90;;;;;;;2.24;100.00;99807.48;124703;1099;103949;-74
2023/04/05 03:07:25;;;;;;;2.23;1.90;;;;;;;2.23;100.00;99804.00;124375;1099;103939;-74
2023/04/05 03:09:58;;;;;;;5.67;3.00;;;;;;;2.22;100.00;99816.86;124776;1099;103840;-73
2023/04/05 03:12:31;;;;;;;2.87;2.03;;;;;;;2.21;100.00;99828.01;124382;1099;104046;-74
2023/04/05 03:15:04;;;;;;;3.45;2.60;;;;;;;2.20;100.00;99813.27;124386;1099;104001;-74
2023/04/05 03:17:42;;;;;;;3.07;2.57;;;;;;;2.20;100.00;99818.45;124374;1099;103949;-73
2023/04/05 03:20:16;;;;;;;2.90;2.43;;;;;;;2.20;100.00;99816.77;124355;1099;103980;-75
2023/04/05 03:22:48;;;;;;;3.40;2.60;;;;;;;2.19;100.00;99812.39;124420;1100;103934;-74
2023/04/05 03:25:21;;;;;;;3.07;2.13;;;;;;;2.19;100.00;99801.16;124868;1099;101589;-75
2023/04/05 03:27:54;;;;;;;5.97;3.00;;;;;;;2.21;100.00;99809.89;124477;1102;104044;-75
2023/04/05 03:30:31;;;;;;;4.00;2.30;;;;;;;2.22;100.00;99799.62;124780;1099;102000;-74
2023/04/05 03:33:07;;;;;;;2.87;2.30;;;;;;;2.22;100.00;99802.21;124341;1099;104187;-74
2023/04/05 03:35:44;;;;;;;3.33;2.37;;;;;;;2.23;100.00;99800.50;124936;1099;103334;-76
2023/04/05 03:38:17;;;;;;;3.10;2.50;;;;;;;2.23;100.00;99804.00;124396;1099;104137;-76
2023/04/05 03:40:57;;;;;;;4.17;2.60;;;;;;;2.23;100.00;99795.33;124361;1099;101602;-74
2023/04/05 03:43:30;;;;;;;4.37;3.27;;;;;;;2.21;100.00;99797.83;124405;1099;101705;-74
2023/04/05 03:46:02;;;;;;;2.93;2.30;;;;;;;2.21;100.00;99802.13;124786;1099;104029;-76
2023/04/05 03:48:35;;;;;;;2.20;2.00;;;;;;;2.22;100.00;99803.92;124762;1099;103951;-74
2023/04/05 03:51:08;;;;;;;3.60;2.60;;;;;;;2.19;100.00;99804.63;124366;1099;101837;-73
2023/04/05 03:53:40;;;;;;;5.17;2.70;;;;;;;2.20;100.00;99801.23;124382;1099;104158;-74
2023/04/05 03:56:12;;;;;;;4.00;2.60;;;;;;;2.20;100.00;99809.01;124808;1099;104172;-74
2023/04/05 03:58:49;;;;;;;4.67;2.70;;;;;;;2.19;100.00;99814.98;124448;1099;103935;-75
2023/04/05 04:01:22;;;;;;;4.00;2.63;;;;;;;2.19;100.00;99811.50;124386;1099;103833;-74
2023/04/05 04:03:54;;;;;;;4.00;2.63;;;;;;;2.19;100.00;99808.91;124511;1098;102862;-75
2023/04/05 04:06:29;;;;;;;5.33;2.90;;;;;;;2.20;100.00;99805.50;124766;1099;101743;-75
2023/04/05 04:09:00;;;;;;;;;;;;;;;2.19;100.00;99811.50;124343;1099;104057;-75
2023/04/05 04:11:34;;;;;;;5.50;3.00;;;;;;;2.17;100.00;99811.41;124718;1099;104079;-75
2023/04/05 04:14:10;;;;;;;6.10;3.10;;;;;;;2.18;100.00;99800.23;124396;1099;104038;-74
2023/04/05 04:17:01;;;;;;;3.63;2.70;;;;;;;2.20;100.00;99810.68;124768;1099;103971;-73
2023/04/05 04:19:51;;;;;;;3.97;2.67;;;;;;;2.20;100.00;99821.95;124909;1099;103986;-75
2023/04/05 04:22:52;;;;;;;5.13;3.27;;;;;;;2.19;100.00;99812.39;124519;1099;118440;-74
2023/04/05 04:25:46;;;;;;;5.47;2.73;;;;;;;2.19;100.00;99814.09;124658;1099;102651;-75
2023/04/05 04:28:38;;;;;;;;;;;;;;;2.19;100.00;99809.80;124567;1099;101792;-75
2023/04/05 04:31:28;;;;;;;3.67;2.73;;;;;;;2.19;100.00;99798.56;124340;1099;103977;-75
2023/04/05 04:34:01;;;;;;;5.07;3.23;;;;;;;2.20;100.00;99815.86;124946;1099;104006;-75
2023/04/05 04:36:59;;;;;;;5.27;2.80;;;;;;;2.18;100.00;99813.18;124410;1099;103252;-77
2023/04/05 04:39:51;;;;;;;5.75;2.80;;;;;;;2.21;100.00;99821.13;124365;1099;103974;-75
2023/04/05 04:42:46;;;;;;;3.17;2.37;;;;;;;2.22;100.00;99803.92;124352;1099;103922;-76
2023/04/05 04:45:38;;;;;;;3.87;2.70;;;;;;;2.22;100.00;99812.56;124525;1099;103963;-75
2023/04/05 04:48:23;;;;;;;5.10;3.03;;;;;;;2.22;100.00;99806.50;124293;1099;103948;-75
2023/04/05 04:51:04;;;;;;;5.30;3.00;;;;;;;2.23;100.00;99813.45;124865;1099;104085;-76
2023/04/05 04:53:39;;;;;;;5.95;3.20;;;;;;;2.24;100.00;99817.83;124312;1099;107095;-75
2023/04/05 04:56:12;;;;;;;4.87;2.87;;;;;;;2.23;100.00;99809.19;124813;1099;101794;-76
2023/04/05 04:58:45;;;;;;;5.25;3.00;;;;;;;2.22;100.00;99815.16;124715;1099;102246;-75
2023/04/05 05:01:17;;;;;;;4.20;2.73;;;;;;;2.24;100.00;99823.01;124657;1099;104006;-76
2023/04/05 05:03:49;;;;;;;3.87;2.77;;;;;;;2.25;100.00;99814.45;124953;1099;104066;-77
2023/04/05 05:06:26;;;;;;;4.93;2.97;;;;;;;2.24;100.00;99807.48;124413;1099;102118;-75
2023/04/05 05:08:58;;;;;;;5.43;3.20;;;;;;;2.23;100.00;99816.95;124486;1099;102993;-75
2023/04/05 05:11:32;;;;;;;4.60;2.90;;;;;;;2.24;100.00;99817.83;124196;1099;104111;-75
2023/04/05 05:14:04;;;;;;;5.53;3.07;;;;;;;2.23;100.00;99805.68;124631;1099;104025;-73
2023/04/05 05:16:37;;;;;;;5.40;2.83;;;;;;;2.25;100.00;99817.04;124934;1099;104146;-75
2023/04/05 05:19:09;;;;;;;3.90;2.70;;;;;;;2.24;100.00;99807.48;125112;1099;102241;-73
2023/04/05 05:22:00;;;;;;;4.50;2.80;;;;;;;2.26;100.00;99814.54;124884;1099;104073;-73
2023/04/05 05:24:33;;;;;;;5.00;2.70;;;;;;;2.24;100.00;99817.83;125153;1099;104197;-74
2023/04/05 05:27:05;;;;;;;3.83;2.73;;;;;;;2.25;100.00;99817.04;124869;1099;103957;-73
2023/04/05 05:29:39;;;;;;;3.40;2.70;;;;;;;2.25;100.00;99817.04;125431;1099;103942;-74
2023/04/05 05:32:14;;;;;;;4.97;3.03;;;;;;;2.26;100.00;99814.54;124750;1099;103967;-73
2023/04/05 05:34:47;;;;;;;4.83;2.73;;;;;;;2.26;100.00;99818.80;124975;1099;103986;-73
2023/04/05 05:37:23;;;;;;;4.07;2.87;;;;;;;2.27;100.00;99812.83;125574;1099;102696;-76
2023/04/05 05:39:56;;;;;;;3.80;2.77;;;;;;;2.26;100.00;99803.27;125560;1099;104429;-74
2023/04/05 05:42:31;;;;;;;6.37;3.77;;;;;;;2.29;100.00;99803.45;124959;1099;102929;-73
2023/04/05 05:45:05;;;;;;;4.83;3.00;;;;;;;2.30;100.00;99813.89;124552;1099;104207;-73
2023/04/05 05:47:39;;;;;;;6.47;3.43;;;;;;;2.31;100.00;99807.03;124806;1099;101986;-72
2023/04/05 05:50:13;;;;;;;7.10;4.10;;;;;;;2.31;100.00;99818.27;124785;1099;103984;-76
2023/04/05 05:52:46;;;;;;;5.57;3.37;;;;;;;2.32;100.00;99811.39;125030;1099;103332;-76
2023/04/05 05:55:21;;;;;;;5.67;2.80;;;;;;;2.31;100.00;99817.39;125061;1099;101782;-76
2023/04/05 05:57:54;;;;;;;6.53;3.10;;;;;;;2.28;100.00;99812.04;125128;1099;104102;-74
2023/04/05 06:00:26;;;;;;;5.67;3.10;;;;;;;2.26;100.00;99824.89;126203;1098;104436;-76
2023/04/05 06:03:03;;;;;;;3.80;2.60;;;;;;;2.25;100.00;99811.86;124568;1099;104144;-73
2023/04/05 06:05:40;;;;;;;5.83;2.90;;;;;;;2.24;100.00;99823.89;124678;1099;101646;-77
2023/04/05 06:08:15;;;;;;;4.00;2.50;;;;;;;2.24;100.00;99812.66;124856;1099;104006;-76
2023/04/05 06:10:48;;;;;;;6.07;3.30;;;;;;;2.25;100.00;99796.33;124738;1099;103961;-74
2023/04/05 06:13:23;;;;;;;4.47;2.63;;;;;;;2.23;100.00;99814.36;125649;1099;102432;-80
2023/04/05 06:15:56;;;;;;;5.20;2.80;;;;;;;2.23;100.00;99821.21;125650;1099;101619;-75
2023/04/05 06:18:31;;;;;;;4.07;2.90;;;;;;;2.20;100.00;99798.66;125618;1099;102906;-81
2023/04/05 06:21:04;;;;;;;4.90;2.60;;;;;;;2.18;100.00;99823.53;125428;1099;104905;-79
2023/04/05 06:23:40;;;;;;;6.00;2.77;;;;;;;2.19;100.00;99814.98;124821;1099;103124;-74
2023/04/05 06:26:19;;;;;;;6.30;2.80;;;;;;;2.19;100.00;99812.39;124767;1099;102297;-76
2023/04/05 06:28:55;;;;;;;7.50;3.60;;;;;;;2.21;100.00;99796.95;124705;1099;103939;-78
2023/04/05 06:31:36;;;;;;;6.27;3.23;;;;;;;2.21;100.00;99815.95;125015;1099;104155;-76
2023/04/05 06:34:09;;;;;;;6.03;3.10;;;;;;;2.22;100.00;99817.74;124653;1099;104018;-79
2023/04/05 06:36:41;;;;;;;5.07;3.20;;;;;;;2.25;100.00;99817.04;124916;1099;101714;-77
2023/04/05 06:39:14;;;;;;;7.80;3.47;;;;;;;2.26;100.00;99818.80;124686;1099;103939;-76
2023/04/05 06:41:46;;;;;;;8.23;3.37;;;;;;;2.26;100.00;99826.57;124769;1099;102066;-76
2023/04/05 06:44:18;;;;;;;6.83;2.80;;;;;;;2.25;100.00;99830.86;124559;1099;104677;-75
2023/04/05 06:46:51;;;;;;;6.03;2.37;;;;;;;2.23;100.00;99827.30;124652;1099;103948;-78
2023/04/05 06:49:25;;;;;;;7.50;3.53;;;;;;;2.27;100.00;99825.78;124639;1099;104030;-76
2023/04/05 06:51:58;;;;;;;9.77;3.43;;;;;;;2.26;100.00;99835.25;124999;1099;104037;-75
2023/04/05 06:54:30;;;;;;;6.83;3.50;;;;;;;2.25;100.00;99825.69;124788;1098;103983;-75
2023/04/05 06:57:07;;;;;;;6.10;3.00;;;;;;;2.25;100.00;99827.39;124895;1099;103983;-74
2023/04/05 06:59:40;;;;;;;6.27;3.57;;;;;;;2.23;100.00;99826.39;124975;1099;103935;-75
2023/04/05 07:02:15;;;;;;;4.83;2.80;;;;;;;2.20;100.00;99832.30;124856;1099;103942;-75
2023/04/05 07:04:48;;;;;;;6.12;3.22;;;;;;;2.19;100.00;99829.62;124554;1099;102638;-75
2023/04/05 07:07:21;;;;;;;7.53;3.33;;;;;;;2.18;100.00;99831.30;124655;1099;104159;-74
2023/04/05 07:09:53;;;;;;;7.10;3.67;;;;;;;2.18;100.00;99838.19;124679;1099;104056;-76
2023/04/05 07:12:26;;;;;;;5.30;3.20;;;;;;;2.15;100.00;99834.63;124732;1099;103968;-75
2023/04/05 07:14:59;;;;;;;9.30;3.70;;;;;;;2.18;100.00;99833.00;124735;1099;104102;-75
2023/04/05 07:17:35;;;;;;;6.47;3.00;;;;;;;2.15;100.00;99833.70;124712;1099;101596;-73
2023/04/05 07:20:09;;;;;;;8.00;3.60;;;;;;;2.14;100.00;99840.59;124845;1099;103974;-75
2023/04/05 07:22:42;;;;;;;10.93;4.20;;;;;;;2.13;100.00;99836.20;125126;1099;104037;-80
2023/04/05 07:25:15;;;;;;;10.00;4.20;;;;;;;2.13;100.00;99833.62;125191;1099;104187;-80
2023/04/05 07:27:49;;;;;;;5.43;3.43;;;;;;;2.12;100.00;99830.94;125192;1099;103996;-76
2023/04/05 07:30:31;;;;;;;10.30;4.20;;;;;;;2.10;100.00;99833.47;126504;1098;101660;-82
2023/04/05 07:33:04;;;;;;;;;;;;;;;2.11;100.00;99826.59;126434;1098;102040;-79
2023/04/05 07:35:37;;;;;;;5.63;3.30;;;;;;;2.09;100.00;99830.80;125281;1099;104037;-77
2023/04/05 07:38:13;;;;;;;7.97;3.90;;;;;;;2.10;100.00;99827.38;124915;1099;101769;-79
2023/04/05 07:40:52;;;;;;;6.90;3.20;;;;;;;2.11;100.00;99836.94;125705;1099;104011;-79
2023/04/05 07:43:27;;;;;;;8.50;3.77;;;;;;;2.11;100.00;99822.30;124856;1099;102058;-76
2023/04/05 07:46:06;;;;;;;7.57;3.80;;;;;;;2.11;100.00;99827.47;124850;1099;104070;-75
2023/04/05 07:48:53;;;;;;;6.73;3.63;;;;;;;2.12;100.00;99823.17;125761;1098;104002;-80
2023/04/05 07:51:35;;;;;;;6.80;3.33;;;;;;;2.09;100.00;99829.09;126130;1098;104172;-79
2023/04/05 07:54:10;;;;;;;6.07;3.67;;;;;;;2.10;100.00;99838.65;126620;1098;103862;-81
2023/04/05 07:56:42;;;;;;;;;;;;;;;2.10;100.00;99835.14;126617;1098;101596;-83
2023/04/05 07:59:23;;;;;;;7.33;3.73;;;;;;;2.12;100.00;99836.12;125905;1099;104037;-84
2023/04/05 08:01:57;;;;;;;6.20;3.57;;;;;;;2.15;100.00;99846.66;126011;1099;101631;-80
2023/04/05 08:04:34;;;;;;;6.53;3.52;;;;;;;2.14;100.00;99848.36;125638;1099;103955;-80
2023/04/05 08:07:06;;;;;;;8.00;4.10;;;;;;;2.15;100.00;99847.56;125316;1099;102988;-80
2023/04/05 08:09:39;;;;;;;7.70;3.50;;;;;;;2.14;100.00;99839.70;125480;1099;101861;-80
2023/04/05 08:12:12;;;;;;;6.47;4.10;;;;;;;2.19;100.00;99842.56;125419;1099;102076;-79
2023/04/05 08:14:46;;;;;;;7.80;3.98;;;;;;;2.20;100.00;99836.56;125920;1098;103941;-78
2023/04/05 08:17:22;;;;;;;6.17;3.83;;;;;;;2.19;100.00;99843.45;124935;1099;103977;-77
2023/04/05 08:19:57;;;;;;;7.13;3.87;;;;;;;2.18;100.00;99838.19;124990;1099;104033;-77
2023/04/05 08:22:35;;;;;;;8.93;4.00;;;;;;;2.20;100.00;99826.21;124795;1099;104066;-79
2023/04/05 08:25:12;;;;;;;7.43;3.80;;;;;;;2.22;100.00;99834.98;125958;1099;101919;-79
2023/04/05 08:27:44;;;;;;;7.87;4.03;;;;;;;2.25;100.00;99846.40;125421;1098;104131;-79
2023/04/05 08:30:18;;;;;;;7.70;3.83;;;;;;;2.25;100.00;99845.52;125262;1099;103967;-78
2023/04/05 08:32:51;;;;;;;8.28;4.55;;;;;;;2.26;100.00;99844.69;125446;1099;104025;-84
2023/04/05 08:35:25;;;;;;;9.18;4.47;;;;;;;2.23;100.00;99852.28;126236;1099;104005;-78
2023/04/05 08:37:59;;;;;;;9.83;3.97;;;;;;;2.16;100.00;99841.56;124876;1099;110808;-82
2023/04/05 08:40:40;;;;;;;8.30;4.27;;;;;;;2.14;100.00;99832.83;125428;1099;104027;-79
2023/04/05 08:43:23;;;;;;;8.97;4.73;;;;;;;2.15;100.00;99844.06;125443;1099;102076;-78
2023/04/05 08:45:58;;;;;;;7.47;4.80;;;;;;;2.15;100.00;99836.30;125737;1098;104041;-83
2023/04/05 08:48:35;;;;;;;10.47;4.60;;;;;;;2.14;100.00;99839.70;125475;1099;104059;-78
2023/04/05 08:51:08;;;;;;;9.83;4.40;;;;;;;2.17;100.00;99858.01;125021;1098;101692;-79
2023/04/05 08:53:42;;;;;;;9.18;4.47;;;;;;;2.14;100.00;99835.41;125011;1099;104013;-81
2023/04/05 08:56:21;;;;;;;9.00;4.27;;;;;;;2.14;100.00;99840.59;125079;1099;104047;-77
2023/04/05 08:59:04;;;;;;;10.97;5.57;;;;;;;2.18;100.00;99836.48;125171;1099;108425;-76
2023/04/05 09:01:42;;;;;;;8.40;4.77;;;;;;;2.21;100.00;99846.13;124831;1099;103945;-77
2023/04/05 09:04:20;;;;;;;11.20;4.90;;;;;;;2.27;100.00;99838.72;124476;1099;101814;-77
2023/04/05 09:06:56;;;;;;;10.90;5.07;;;;;;;2.31;100.00;99845.88;124924;1099;101647;-75
2023/04/05 09:09:37;;;;;;;10.33;5.43;;;;;;;2.31;100.00;99849.34;124856;1099;101990;-75
2023/04/05 09:12:11;;;;;;;9.27;5.00;;;;;;;2.33;100.00;99844.26;126170;1098;101606;-78
2023/04/05 09:14:47;;;;;;;9.10;4.93;;;;;;;2.32;100.00;99845.05;124876;1099;104023;-78
2023/04/05 09:17:21;;;;;;;10.17;4.67;;;;;;;2.32;100.00;99847.63;124863;1099;104048;-76
2023/04/05 09:19:54;;;;;;;9.90;5.03;;;;;;;2.31;100.00;99838.98;124907;1098;104043;-78
2023/04/05 09:22:27;;;;;;;9.45;5.20;;;;;;;2.28;100.00;99835.34;125040;1099;103910;-77
2023/04/05 09:25:02;;;;;;;10.03;4.90;;;;;;;2.25;100.00;99838.63;125150;1099;101807;-79
2023/04/05 09:27:38;;;;;;;9.30;4.67;;;;;;;2.23;100.00;99845.42;126273;1098;102536;-76
2023/04/05 09:30:23;;;;;;;7.37;4.20;;;;;;;2.21;100.00;99834.06;126256;1098;103951;-76
2023/04/05 09:32:57;;;;;;;6.37;3.70;;;;;;;2.22;100.00;99835.86;125240;1099;104144;-77
2023/04/05 09:35:35;;;;;;;9.00;4.77;;;;;;;2.20;100.00;99829.72;126288;1099;103136;-78
2023/04/05 09:38:09;;;;;;;8.23;4.30;;;;;;;2.21;100.00;99815.06;125752;1097;103839;-78
2023/04/05 09:40:47;;;;;;;8.20;4.67;;;;;;;2.21;100.00;99830.59;126007;1098;103845;-79
2023/04/05 09:43:40;;;;;;;8.90;4.60;;;;;;;2.25;100.00;99809.27;125264;1099;101821;-81
2023/04/05 09:46:31;;;;;;;9.23;4.47;;;;;;;2.23;100.00;99823.80;125143;1099;103962;-77
2023/04/05 09:49:05;;;;;;;9.33;4.77;;;;;;;2.23;100.00;99822.12;125174;1099;101793;-80
2023/04/05 09:51:40;;;;;;;8.50;4.63;;;;;;;2.21;100.00;99823.71;125346;1098;101708;-78
2023/04/05 09:54:16;;;;;;;7.83;4.07;;;;;;;2.19;100.00;99825.33;125142;1098;103836;-77
2023/04/05 09:56:57;;;;;;;8.50;4.40;;;;;;;2.18;100.00;99826.13;126175;1098;103961;-76
2023/04/05 09:59:34;;;;;;;7.93;4.37;;;;;;;2.19;100.00;99819.27;124874;1099;101707;-77
2023/04/05 10:02:07;;;;;;;9.27;4.20;;;;;;;2.19;100.00;99832.22;124995;1099;102214;-80
2023/04/05 10:04:47;;;;;;;8.80;4.40;;;;;;;2.21;100.00;99830.59;126205;1099;104096;-79
2023/04/05 10:07:21;;;;;;;8.33;4.07;;;;;;;2.19;100.00;99827.92;125737;1098;101673;-81
2023/04/05 10:10:14;;;;;;;8.43;4.67;;;;;;;2.22;100.00;99822.92;125911;1098;101610;-80
2023/04/05 10:12:49;;;;;;;8.10;4.10;;;;;;;2.22;100.00;99825.51;125323;1099;101743;-80
2023/04/05 10:15:26;;;;;;;8.53;4.33;;;;;;;2.23;100.00;99826.39;125979;1098;101947;-81
2023/04/05 10:18:11;;;;;;;6.33;3.90;;;;;;;2.23;100.00;99819.54;125811;1099;104041;-83
2023/04/05 10:20:48;;;;;;;8.00;4.07;;;;;;;2.21;100.00;99809.89;124824;1099;103967;-83
2023/04/05 10:23:26;;;;;;;9.07;4.63;;;;;;;2.23;100.00;99806.59;126408;1098;104072;-82
2023/04/05 10:26:05;;;;;;;8.83;4.07;;;;;;;2.28;100.00;99828.45;125316;1099;102112;-81
2023/04/05 10:28:47;;;;;;;7.57;3.90;;;;;;;2.32;100.00;99811.39;125876;1099;104127;-84
2023/04/05 10:31:29;;;;;;;7.57;3.93;;;;;;;2.38;100.00;99808.27;125455;1099;103987;-81
2023/04/05 10:34:08;;;;;;;8.03;4.17;;;;;;;2.44;100.00;99811.21;126014;1098;103878;-80
2023/04/05 10:36:52;;;;;;;10.47;5.00;;;;;;;2.43;100.00;99815.52;126159;1098;104105;-81
2023/04/05 10:39:33;;;;;;;8.13;4.30;;;;;;;2.41;100.00;99831.75;126328;1098;102480;-80
2023/04/05 10:42:15;;;;;;;6.80;3.80;;;;;;;2.34;100.00;99828.81;125502;1099;101846;-80
2023/04/05 10:44:54;;;;;;;8.23;3.90;;;;;;;2.31;100.00;99822.57;125992;1098;102008;-78
2023/04/05 10:47:37;;;;;;;6.37;3.60;;;;;;;2.26;100.00;99840.42;125311;1099;101885;-82
2023/04/05 10:50:12;;;;;;;8.97;4.80;;;;;;;2.23;100.00;99828.98;125392;1099;101646;-80
2023/04/05 10:52:46;;;;;;;9.63;4.33;;;;;;;2.20;100.00;99844.33;125468;1099;101587;-80
2023/04/05 10:55:21;;;;;;;7.90;4.23;;;;;;;2.13;100.00;99837.91;125145;1099;103958;-78
2023/04/05 10:57:56;;;;;;;8.67;3.90;;;;;;;2.08;100.00;99829.88;126319;1098;101842;-78
2023/04/05 11:00:29;;;;;;;9.27;4.40;;;;;;;2.09;100.00;99836.85;125276;1099;102206;-79
2023/04/05 11:03:04;;;;;;;9.50;4.70;;;;;;;2.07;100.00;99827.20;125279;1099;104041;-77
2023/04/05 11:05:42;;;;;;;8.37;3.57;;;;;;;2.00;100.00;99854.42;125079;1099;101821;-86
2023/04/05 11:08:15;;;;;;;8.40;4.50;;;;;;;1.96;100.00;99837.83;125484;1098;104418;-82
2023/04/05 11:10:53;;;;;;;8.50;4.00;;;;;;;1.95;100.00;99853.27;125109;1098;103963;-79
2023/04/05 11:13:55;;;;;;;6.53;3.77;;;;;;;1.90;100.00;99855.58;125696;1099;101802;-80
2023/04/05 11:16:40;;;;;;;8.30;3.83;;;;;;;1.88;100.00;99864.04;125703;1099;101761;-82
2023/04/05 11:19:16;;;;;;;9.10;4.73;;;;;;;1.86;100.00;99852.72;125256;1099;102544;-80
2023/04/05 11:22:04;;;;;;;8.20;3.67;;;;;;;1.86;100.00;99855.30;125428;1099;118431;-80
2023/04/05 11:24:53;;;;;;;9.20;4.47;;;;;;;1.87;100.00;99854.48;125129;1099;102901;-78
2023/04/05 11:30:09;;;;;;;8.73;4.27;;;;;;;1.90;100.00;99859.84;124419;1099;103932;-77
2023/04/05 11:32:48;;;;;;;6.70;3.90;;;;;;;1.87;100.00;99864.83;126084;1098;101450;-79
2023/04/05 11:35:22;;;;;;;7.87;3.97;;;;;;;1.85;100.00;99858.68;125325;1099;104101;-80
2023/04/05 11:38:09;;;;;;;7.77;3.50;;;;;;;1.84;100.00;99856.88;125137;1099;103983;-79
2023/04/05 11:40:45;;;;;;;9.47;4.23;;;;;;;1.80;100.00;99867.05;125068;1099;103990;-82
2023/04/05 11:43:28;;;;;;;8.00;4.10;;;;;;;1.82;100.00;99868.84;125094;1099;103948;-77
2023/04/05 11:46:07;;;;;;;8.10;4.20;;;;;;;1.85;100.00;99869.03;124890;1099;104010;-79
2023/04/05 11:48:42;;;;;;;7.47;4.00;;;;;;;1.87;100.00;99875.18;124827;1099;102034;-77
2023/04/05 11:51:16;;;;;;;8.10;4.10;;;;;;;1.86;100.00;99869.12;125117;1099;103960;-78
2023/04/05 11:53:47;;;;;;;;;;;;;;;1.85;100.00;99863.85;126145;1099;101640;-78
2023/04/05 11:56:25;;;;;;;5.77;3.07;;;;;;;1.83;100.00;99866.34;124985;1099;101663;-77
2023/04/05 11:59:01;;;;;;;5.77;3.47;;;;;;;1.81;100.00;99865.38;124724;1099;104110;-77
2023/04/05 12:01:33;;;;;;;6.15;3.85;;;;;;;1.82;100.00;99863.67;124738;1099;105423;-76